sensor_id;sensor_type;location;lat;lon;timestamp;pressure;altitude;pressure_sealevel;temperature;humidity
54361;BME280;40258;53.936;27.540;2022-10-17T00:01:18;100028.03;;;11.18;100.00
54361;BME280;40258;53.936;27.540;2022-10-17T00:03:46;100032.34;;;11.19;100.00
54361;BME280;40258;53.936;27.540;2022-10-17T00:06:15;100033.84;;;11.11;100.00
54361;BME280;40258;53.936;27.540;2022-10-17T00:08:45;100043.63;;;11.12;100.00
54361;BME280;40258;53.936;27.540;2022-10-17T00:11:16;100043.44;;;11.08;100.00
54361;BME280;40258;53.936;27.540;2022-10-17T00:13:46;100035.38;;;11.03;100.00
54361;BME280;40258;53.936;27.540;2022-10-17T00:16:21;100045.84;;;10.96;100.00
54361;BME280;40258;53.936;27.540;2022-10-17T00:18:50;100034.66;;;10.84;100.00
54361;BME280;40258;53.936;27.540;2022-10-17T00:21:19;100031.94;;;10.84;100.00
54361;BME280;40258;53.936;27.540;2022-10-17T00:23:51;100030.84;;;10.85;100.00
54361;BME280;40258;53.936;27.540;2022-10-17T00:26:20;100026.91;;;10.77;100.00
54361;BME280;40258;53.936;27.540;2022-10-17T00:28:49;100022.16;;;10.69;100.00
54361;BME280;40258;53.936;27.540;2022-10-17T00:31:21;100016.44;;;10.70;100.00
54361;BME280;40258;53.936;27.540;2022-10-17T00:33:51;100026.88;;;10.63;100.00
54361;BME280;40258;53.936;27.540;2022-10-17T00:36:22;100026.66;;;10.59;100.00
54361;BME280;40258;53.936;27.540;2022-10-17T00:38:55;100017.91;;;10.49;100.00
54361;BME280;40258;53.936;27.540;2022-10-17T00:41:28;100036.97;;;10.43;100.00
54361;BME280;40258;53.936;27.540;2022-10-17T00:44:00;100033.69;;;10.47;100.00
54361;BME280;40258;53.936;27.540;2022-10-17T00:46:31;100042.41;;;10.43;100.00
54361;BME280;40258;53.936;27.540;2022-10-17T00:49:05;100033.88;;;10.36;100.00
54361;BME280;40258;53.936;27.540;2022-10-17T00:51:37;100040.88;;;10.37;100.00
54361;BME280;40258;53.936;27.540;2022-10-17T00:54:09;100045.13;;;10.43;100.00
54361;BME280;40258;53.936;27.540;2022-10-17T00:56:38;100051.06;;;10.46;100.00
54361;BME280;40258;53.936;27.540;2022-10-17T00:59:08;100054.38;;;10.42;100.00
54361;BME280;40258;53.936;27.540;2022-10-17T01:01:39;100051.72;;;10.37;100.00
54361;BME280;40258;53.936;27.540;2022-10-17T01:04:09;100050.94;;;10.37;100.00
54361;BME280;40258;53.936;27.540;2022-10-17T01:06:39;100047.34;;;10.41;100.00
54361;BME280;40258;53.936;27.540;2022-10-17T01:09:10;100039.09;;;10.47;100.00
54361;BME280;40258;53.936;27.540;2022-10-17T01:11:45;100031.56;;;10.43;100.00
54361;BME280;40258;53.936;27.540;2022-10-17T01:14:24;100026.22;;;10.38;100.00
54361;BME280;40258;53.936;27.540;2022-10-17T01:17:01;100031.16;;;10.36;100.00
54361;BME280;40258;53.936;27.540;2022-10-17T01:19:45;100038.81;;;10.29;100.00
54361;BME280;40258;53.936;27.540;2022-10-17T01:22:21;100044.53;;;10.28;100.00
54361;BME280;40258;53.936;27.540;2022-10-17T01:25:22;100056.38;;;10.37;100.00
54361;BME280;40258;53.936;27.540;2022-10-17T01:28:17;100053.78;;;10.46;100.00
54361;BME280;40258;53.936;27.540;2022-10-17T01:30:58;100045.34;;;10.47;100.00
54361;BME280;40258;53.936;27.540;2022-10-17T01:33:44;100047.78;;;10.49;100.00
54361;BME280;40258;53.936;27.540;2022-10-17T01:36:25;100047.38;;;10.55;100.00
54361;BME280;40258;53.936;27.540;2022-10-17T01:39:01;100053.72;;;10.65;100.00
54361;BME280;40258;53.936;27.540;2022-10-17T01:41:38;100045.88;;;10.63;100.00
54361;BME280;40258;53.936;27.540;2022-10-17T01:44:12;100035.44;;;10.70;100.00
54361;BME280;40258;53.936;27.540;2022-10-17T01:46:47;100035.97;;;10.72;100.00
54361;BME280;40258;53.936;27.540;2022-10-17T01:49:20;100045.19;;;10.71;100.00
54361;BME280;40258;53.936;27.540;2022-10-17T01:51:55;100033.91;;;10.64;100.00
54361;BME280;40258;53.936;27.540;2022-10-17T01:54:29;100035.19;;;10.53;100.00
54361;BME280;40258;53.936;27.540;2022-10-17T01:57:03;100046.75;;;10.45;100.00
54361;BME280;40258;53.936;27.540;2022-10-17T01:59:38;100039.28;;;10.36;100.00
54361;BME280;40258;53.936;27.540;2022-10-17T02:02:11;100050.16;;;10.36;100.00
54361;BME280;40258;53.936;27.540;2022-10-17T02:04:42;100049.31;;;10.36;100.00
54361;BME280;40258;53.936;27.540;2022-10-17T02:07:12;100056.66;;;10.35;100.00
54361;BME280;40258;53.936;27.540;2022-10-17T02:09:40;100047.13;;;10.38;100.00
54361;BME280;40258;53.936;27.540;2022-10-17T02:12:31;100045.66;;;10.46;100.00
54361;BME280;40258;53.936;27.540;2022-10-17T02:15:34;100033.09;;;10.50;100.00
54361;BME280;40258;53.936;27.540;2022-10-17T02:18:21;100034.91;;;10.54;100.00
54361;BME280;40258;53.936;27.540;2022-10-17T02:20:59;100039.53;;;10.54;100.00
54361;BME280;40258;53.936;27.540;2022-10-17T02:23:36;100030.28;;;10.55;100.00
54361;BME280;40258;53.936;27.540;2022-10-17T02:26:11;100034.91;;;10.54;100.00
54361;BME280;40258;53.936;27.540;2022-10-17T02:28:47;100031.50;;;10.63;100.00
54361;BME280;40258;53.936;27.540;2022-10-17T02:31:23;100021.66;;;10.67;100.00
54361;BME280;40258;53.936;27.540;2022-10-17T02:33:58;100034.44;;;10.66;100.00
54361;BME280;40258;53.936;27.540;2022-10-17T02:36:34;100032.31;;;10.63;100.00
54361;BME280;40258;53.936;27.540;2022-10-17T02:39:07;100038.16;;;10.70;100.00
54361;BME280;40258;53.936;27.540;2022-10-17T02:41:37;100034.34;;;10.71;100.00
54361;BME280;40258;53.936;27.540;2022-10-17T02:44:08;100030.91;;;10.79;100.00
54361;BME280;40258;53.936;27.540;2022-10-17T02:46:38;100026.31;;;10.80;100.00
54361;BME280;40258;53.936;27.540;2022-10-17T02:49:16;100032.94;;;10.74;100.00
54361;BME280;40258;53.936;27.540;2022-10-17T02:51:54;100039.16;;;10.74;100.00
54361;BME280;40258;53.936;27.540;2022-10-17T02:54:31;100040.59;;;10.86;100.00
54361;BME280;40258;53.936;27.540;2022-10-17T02:57:05;100049.25;;;10.88;100.00
54361;BME280;40258;53.936;27.540;2022-10-17T02:59:38;100040.81;;;10.89;100.00
54361;BME280;40258;53.936;27.540;2022-10-17T03:02:08;100039.38;;;10.92;100.00
54361;BME280;40258;53.936;27.540;2022-10-17T03:04:44;100042.31;;;10.95;100.00
54361;BME280;40258;53.936;27.540;2022-10-17T03:07:13;100046.03;;;11.00;100.00
54361;BME280;40258;53.936;27.540;2022-10-17T03:09:41;100040.81;;;11.03;100.00
54361;BME280;40258;53.936;27.540;2022-10-17T03:12:10;100056.50;;;11.06;100.00
54361;BME280;40258;53.936;27.540;2022-10-17T03:14:38;100056.28;;;11.03;100.00
54361;BME280;40258;53.936;27.540;2022-10-17T03:17:08;100054.91;;;11.05;100.00
54361;BME280;40258;53.936;27.540;2022-10-17T03:19:38;100053.69;;;11.11;100.00
54361;BME280;40258;53.936;27.540;2022-10-17T03:22:07;100054.69;;;11.15;100.00
54361;BME280;40258;53.936;27.540;2022-10-17T03:24:37;100048.16;;;11.17;100.00
54361;BME280;40258;53.936;27.540;2022-10-17T03:27:05;100051.38;;;11.19;100.00
54361;BME280;40258;53.936;27.540;2022-10-17T03:29:34;100064.34;;;11.22;100.00
54361;BME280;40258;53.936;27.540;2022-10-17T03:32:04;100067.66;;;11.19;100.00
54361;BME280;40258;53.936;27.540;2022-10-17T03:34:34;100064.94;;;11.19;100.00
54361;BME280;40258;53.936;27.540;2022-10-17T03:37:04;100078.81;;;11.17;100.00
54361;BME280;40258;53.936;27.540;2022-10-17T03:39:34;100075.81;;;11.19;100.00
54361;BME280;40258;53.936;27.540;2022-10-17T03:42:03;100080.66;;;11.22;100.00
54361;BME280;40258;53.936;27.540;2022-10-17T03:44:32;100096.56;;;11.28;100.00
54361;BME280;40258;53.936;27.540;2022-10-17T03:47:01;100097.38;;;11.29;100.00
54361;BME280;40258;53.936;27.540;2022-10-17T03:49:30;100096.25;;;11.30;100.00
54361;BME280;40258;53.936;27.540;2022-10-17T03:51:59;100098.97;;;11.30;100.00
54361;BME280;40258;53.936;27.540;2022-10-17T03:54:29;100098.88;;;11.35;100.00
54361;BME280;40258;53.936;27.540;2022-10-17T03:56:58;100097.78;;;11.36;100.00
54361;BME280;40258;53.936;27.540;2022-10-17T03:59:27;100090.72;;;11.35;100.00
54361;BME280;40258;53.936;27.540;2022-10-17T04:02:03;100093.94;;;11.37;100.00
54361;BME280;40258;53.936;27.540;2022-10-17T04:04:32;100094.16;;;11.41;100.00
54361;BME280;40258;53.936;27.540;2022-10-17T04:07:00;100089.03;;;11.39;100.00
54361;BME280;40258;53.936;27.540;2022-10-17T04:09:31;100098.16;;;11.43;100.00
54361;BME280;40258;53.936;27.540;2022-10-17T04:12:06;100098.16;;;11.43;100.00
54361;BME280;40258;53.936;27.540;2022-10-17T04:14:37;100099.59;;;11.41;100.00
54361;BME280;40258;53.936;27.540;2022-10-17T04:17:06;100104.19;;;11.40;100.00
54361;BME280;40258;53.936;27.540;2022-10-17T04:19:35;100101.59;;;11.35;100.00
54361;BME280;40258;53.936;27.540;2022-10-17T04:22:04;100101.41;;;11.31;100.00
54361;BME280;40258;53.936;27.540;2022-10-17T04:24:39;100097.38;;;11.29;100.00
54361;BME280;40258;53.936;27.540;2022-10-17T04:27:24;100103.50;;;11.21;100.00
54361;BME280;40258;53.936;27.540;2022-10-17T04:29:54;100092.53;;;11.12;100.00
54361;BME280;40258;53.936;27.540;2022-10-17T04:32:25;100095.63;;;11.05;100.00
54361;BME280;40258;53.936;27.540;2022-10-17T04:35:08;100094.84;;;11.05;100.00
54361;BME280;40258;53.936;27.540;2022-10-17T04:37:40;100102.06;;;11.09;100.00
54361;BME280;40258;53.936;27.540;2022-10-17T04:40:17;100105.38;;;11.06;100.00
54361;BME280;40258;53.936;27.540;2022-10-17T04:42:46;100101.56;;;11.07;100.00
54361;BME280;40258;53.936;27.540;2022-10-17T04:45:19;100098.84;;;11.07;100.00
54361;BME280;40258;53.936;27.540;2022-10-17T04:47:53;100107.78;;;11.08;100.00
54361;BME280;40258;53.936;27.540;2022-10-17T04:50:21;100113.53;;;11.06;100.00
54361;BME280;40258;53.936;27.540;2022-10-17T04:53:10;100107.59;;;11.04;100.00
54361;BME280;40258;53.936;27.540;2022-10-17T04:55:40;100122.69;;;11.10;100.00
54361;BME280;40258;53.936;27.540;2022-10-17T04:58:08;100119.50;;;11.08;100.00
54361;BME280;40258;53.936;27.540;2022-10-17T05:00:38;100131.03;;;11.14;100.00
54361;BME280;40258;53.936;27.540;2022-10-17T05:03:19;100128.94;;;11.25;100.00
54361;BME280;40258;53.936;27.540;2022-10-17T05:05:47;100133.72;;;11.33;100.00
54361;BME280;40258;53.936;27.540;2022-10-17T05:08:16;100127.06;;;11.39;100.00
54361;BME280;40258;53.936;27.540;2022-10-17T05:10:46;100129.78;;;11.39;100.00
54361;BME280;40258;53.936;27.540;2022-10-17T05:13:15;100132.09;;;11.46;100.00
54361;BME280;40258;53.936;27.540;2022-10-17T05:15:43;100138.25;;;11.51;100.00
54361;BME280;40258;53.936;27.540;2022-10-17T05:18:12;100135.78;;;11.64;100.00
54361;BME280;40258;53.936;27.540;2022-10-17T05:20:43;100135.13;;;11.72;100.00
54361;BME280;40258;53.936;27.540;2022-10-17T05:23:12;100130.16;;;11.74;100.00
54361;BME280;40258;53.936;27.540;2022-10-17T05:25:43;100131.97;;;11.79;100.00
54361;BME280;40258;53.936;27.540;2022-10-17T05:28:13;100140.44;;;11.77;100.00
54361;BME280;40258;53.936;27.540;2022-10-17T05:30:43;100147.69;;;11.82;100.00
54361;BME280;40258;53.936;27.540;2022-10-17T05:33:11;100154.94;;;11.86;100.00
54361;BME280;40258;53.936;27.540;2022-10-17T05:35:40;100147.41;;;11.97;100.00
54361;BME280;40258;53.936;27.540;2022-10-17T05:38:09;100150.91;;;11.98;100.00
54361;BME280;40258;53.936;27.540;2022-10-17T05:40:39;100155.44;;;12.02;100.00
54361;BME280;40258;53.936;27.540;2022-10-17T05:43:08;100155.53;;;12.11;100.00
54361;BME280;40258;53.936;27.540;2022-10-17T05:45:38;100164.38;;;12.17;100.00
54361;BME280;40258;53.936;27.540;2022-10-17T05:48:10;100183.13;;;12.18;100.00
54361;BME280;40258;53.936;27.540;2022-10-17T05:50:39;100178.28;;;12.15;100.00
54361;BME280;40258;53.936;27.540;2022-10-17T05:53:13;100180.91;;;12.20;100.00
54361;BME280;40258;53.936;27.540;2022-10-17T05:55:55;100174.84;;;12.23;100.00
54361;BME280;40258;53.936;27.540;2022-10-17T05:58:24;100188.16;;;12.25;100.00
54361;BME280;40258;53.936;27.540;2022-10-17T06:01:02;100205.72;;;12.19;100.00
54361;BME280;40258;53.936;27.540;2022-10-17T06:03:32;100204.38;;;12.16;100.00
54361;BME280;40258;53.936;27.540;2022-10-17T06:06:07;100209.53;;;12.18;100.00
54361;BME280;40258;53.936;27.540;2022-10-17T06:08:38;100210.72;;;12.26;100.00
54361;BME280;40258;53.936;27.540;2022-10-17T06:11:11;100225.22;;;12.35;100.00
54361;BME280;40258;53.936;27.540;2022-10-17T06:13:40;100230.06;;;12.38;100.00
54361;BME280;40258;53.936;27.540;2022-10-17T06:16:16;100224.19;;;12.45;100.00
54361;BME280;40258;53.936;27.540;2022-10-17T06:18:45;100227.63;;;12.50;100.00
54361;BME280;40258;53.936;27.540;2022-10-17T06:21:17;100228.84;;;12.44;100.00
54361;BME280;40258;53.936;27.540;2022-10-17T06:23:49;100224.28;;;12.53;100.00
54361;BME280;40258;53.936;27.540;2022-10-17T06:26:44;100232.22;;;12.64;100.00
54361;BME280;40258;53.936;27.540;2022-10-17T06:29:15;100234.81;;;12.69;100.00
54361;BME280;40258;53.936;27.540;2022-10-17T06:31:51;100239.66;;;12.72;100.00
54361;BME280;40258;53.936;27.540;2022-10-17T06:34:21;100239.03;;;12.75;100.00
54361;BME280;40258;53.936;27.540;2022-10-17T06:36:49;100240.59;;;12.90;100.00
54361;BME280;40258;53.936;27.540;2022-10-17T06:39:19;100236.31;;;12.98;100.00
54361;BME280;40258;53.936;27.540;2022-10-17T06:42:07;100242.75;;;13.02;100.00
54361;BME280;40258;53.936;27.540;2022-10-17T06:44:54;100235.47;;;13.11;100.00
54361;BME280;40258;53.936;27.540;2022-10-17T06:47:37;100243.31;;;13.12;100.00
54361;BME280;40258;53.936;27.540;2022-10-17T06:50:29;100256.88;;;13.26;100.00
54361;BME280;40258;53.936;27.540;2022-10-17T06:53:13;100248.72;;;13.26;100.00
54361;BME280;40258;53.936;27.540;2022-10-17T06:56:06;100252.88;;;13.46;100.00
54361;BME280;40258;53.936;27.540;2022-10-17T06:58:47;100258.88;;;13.57;100.00
54361;BME280;40258;53.936;27.540;2022-10-17T07:01:30;100254.88;;;13.63;100.00
54361;BME280;40258;53.936;27.540;2022-10-17T07:04:03;100260.81;;;13.65;100.00
54361;BME280;40258;53.936;27.540;2022-10-17T07:06:32;100265.47;;;13.65;100.00
54361;BME280;40258;53.936;27.540;2022-10-17T07:09:06;100271.88;;;13.60;100.00
54361;BME280;40258;53.936;27.540;2022-10-17T07:11:37;100271.25;;;13.63;100.00
54361;BME280;40258;53.936;27.540;2022-10-17T07:14:06;100278.16;;;13.70;100.00
54361;BME280;40258;53.936;27.540;2022-10-17T07:16:35;100278.97;;;13.70;100.00
54361;BME280;40258;53.936;27.540;2022-10-17T07:19:15;100276.47;;;13.82;100.00
54361;BME280;40258;53.936;27.540;2022-10-17T07:21:43;100277.63;;;13.90;100.00
54361;BME280;40258;53.936;27.540;2022-10-17T07:24:12;100290.22;;;14.09;100.00
54361;BME280;40258;53.936;27.540;2022-10-17T07:26:46;100298.94;;;14.28;98.79
54361;BME280;40258;53.936;27.540;2022-10-17T07:29:15;100290.03;;;14.54;98.30
54361;BME280;40258;53.936;27.540;2022-10-17T07:31:49;100290.16;;;14.49;97.80
54361;BME280;40258;53.936;27.540;2022-10-17T07:34:19;100283.09;;;14.48;98.00
54361;BME280;40258;53.936;27.540;2022-10-17T07:36:49;100287.91;;;14.60;97.67
54361;BME280;40258;53.936;27.540;2022-10-17T07:39:19;100289.75;;;14.90;96.87
54361;BME280;40258;53.936;27.540;2022-10-17T07:41:48;100284.28;;;15.17;94.96
54361;BME280;40258;53.936;27.540;2022-10-17T07:44:18;100298.25;;;15.33;94.46
54361;BME280;40258;53.936;27.540;2022-10-17T07:46:50;100311.63;;;15.17;94.51
54361;BME280;40258;53.936;27.540;2022-10-17T07:49:20;100314.19;;;15.22;94.46
54361;BME280;40258;53.936;27.540;2022-10-17T07:51:49;100305.00;;;15.26;94.37
54361;BME280;40258;53.936;27.540;2022-10-17T07:54:18;100309.66;;;15.52;93.81
54361;BME280;40258;53.936;27.540;2022-10-17T07:56:46;100313.66;;;15.63;92.92
54361;BME280;40258;53.936;27.540;2022-10-17T07:59:17;100314.41;;;15.81;91.92
54361;BME280;40258;53.936;27.540;2022-10-17T08:01:46;100312.44;;;15.91;92.07
54361;BME280;40258;53.936;27.540;2022-10-17T08:04:14;100316.34;;;15.90;91.93
54361;BME280;40258;53.936;27.540;2022-10-17T08:06:45;100302.97;;;15.88;91.94
54361;BME280;40258;53.936;27.540;2022-10-17T08:09:13;100306.50;;;15.89;92.16
54361;BME280;40258;53.936;27.540;2022-10-17T08:11:42;100306.06;;;15.78;93.21
54361;BME280;40258;53.936;27.540;2022-10-17T08:14:11;100300.09;;;15.76;94.30
54361;BME280;40258;53.936;27.540;2022-10-17T08:16:40;100285.94;;;15.74;95.33
54361;BME280;40258;53.936;27.540;2022-10-17T08:19:09;100296.19;;;15.94;94.99
54361;BME280;40258;53.936;27.540;2022-10-17T08:21:38;100298.22;;;16.06;94.48
54361;BME280;40258;53.936;27.540;2022-10-17T08:24:08;100293.34;;;16.21;93.62
54361;BME280;40258;53.936;27.540;2022-10-17T08:26:37;100294.50;;;16.11;94.47
54361;BME280;40258;53.936;27.540;2022-10-17T08:29:10;100297.22;;;16.20;94.70
54361;BME280;40258;53.936;27.540;2022-10-17T08:31:39;100301.47;;;16.08;95.59
54361;BME280;40258;53.936;27.540;2022-10-17T08:34:07;100300.97;;;16.06;96.15
54361;BME280;40258;53.936;27.540;2022-10-17T08:36:36;100308.91;;;15.99;97.15
54361;BME280;40258;53.936;27.540;2022-10-17T08:39:04;100302.13;;;16.05;96.97
54361;BME280;40258;53.936;27.540;2022-10-17T08:41:53;100296.78;;;16.09;96.76
54361;BME280;40258;53.936;27.540;2022-10-17T08:44:38;100299.53;;;16.39;96.24
54361;BME280;40258;53.936;27.540;2022-10-17T08:47:13;100302.09;;;16.65;94.22
54361;BME280;40258;53.936;27.540;2022-10-17T08:49:46;100302.13;;;16.86;92.96
54361;BME280;40258;53.936;27.540;2022-10-17T08:52:27;100321.25;;;16.74;93.35
54361;BME280;40258;53.936;27.540;2022-10-17T08:54:57;100321.06;;;16.70;94.71
54361;BME280;40258;53.936;27.540;2022-10-17T08:57:27;100322.31;;;16.81;92.86
54361;BME280;40258;53.936;27.540;2022-10-17T08:59:56;100320.19;;;17.08;91.80
54361;BME280;40258;53.936;27.540;2022-10-17T09:02:46;100323.66;;;17.17;91.42
54361;BME280;40258;53.936;27.540;2022-10-17T09:05:37;100320.00;;;16.62;93.77
54361;BME280;40258;53.936;27.540;2022-10-17T09:08:27;100333.78;;;16.53;94.81
54361;BME280;40258;53.936;27.540;2022-10-17T09:11:03;100330.38;;;16.27;96.19
54361;BME280;40258;53.936;27.540;2022-10-17T09:13:52;100334.38;;;16.29;97.27
54361;BME280;40258;53.936;27.540;2022-10-17T09:16:49;100326.66;;;16.23;98.20
54361;BME280;40258;53.936;27.540;2022-10-17T09:19:25;100322.59;;;16.59;97.28
54361;BME280;40258;53.936;27.540;2022-10-17T09:22:00;100314.47;;;16.71;94.41
54361;BME280;40258;53.936;27.540;2022-10-17T09:24:39;100316.44;;;16.92;94.15
54361;BME280;40258;53.936;27.540;2022-10-17T09:27:21;100319.66;;;17.15;92.16
54361;BME280;40258;53.936;27.540;2022-10-17T09:32:39;100321.03;;;17.54;90.18
54361;BME280;40258;53.936;27.540;2022-10-17T09:35:11;100330.09;;;17.55;89.37
54361;BME280;40258;53.936;27.540;2022-10-17T09:37:41;100318.59;;;17.74;89.13
54361;BME280;40258;53.936;27.540;2022-10-17T09:40:21;100325.19;;;17.60;88.53
54361;BME280;40258;53.936;27.540;2022-10-17T09:42:51;100324.59;;;17.88;89.14
54361;BME280;40258;53.936;27.540;2022-10-17T09:45:23;100324.53;;;18.09;86.41
54361;BME280;40258;53.936;27.540;2022-10-17T09:47:59;100336.63;;;17.96;86.46
54361;BME280;40258;53.936;27.540;2022-10-17T09:50:33;100340.03;;;17.93;86.62
54361;BME280;40258;53.936;27.540;2022-10-17T09:53:09;100341.72;;;17.85;86.55
54361;BME280;40258;53.936;27.540;2022-10-17T09:55:42;100346.03;;;17.74;85.89
54361;BME280;40258;53.936;27.540;2022-10-17T09:58:11;100346.06;;;17.86;85.43
54361;BME280;40258;53.936;27.540;2022-10-17T10:00:44;100350.69;;;17.94;84.30
54361;BME280;40258;53.936;27.540;2022-10-17T10:03:18;100349.31;;;18.01;83.92
54361;BME280;40258;53.936;27.540;2022-10-17T10:06:01;100339.38;;;18.08;83.77
54361;BME280;40258;53.936;27.540;2022-10-17T10:08:33;100336.06;;;18.27;82.38
54361;BME280;40258;53.936;27.540;2022-10-17T10:11:05;100340.44;;;18.41;81.42
54361;BME280;40258;53.936;27.540;2022-10-17T10:13:34;100337.09;;;18.47;81.26
54361;BME280;40258;53.936;27.540;2022-10-17T10:16:17;100335.53;;;18.34;80.25
54361;BME280;40258;53.936;27.540;2022-10-17T10:18:48;100323.94;;;18.16;82.30
54361;BME280;40258;53.936;27.540;2022-10-17T10:21:18;100325.53;;;17.92;82.71
54361;BME280;40258;53.936;27.540;2022-10-17T10:24:05;100321.41;;;17.65;83.26
54361;BME280;40258;53.936;27.540;2022-10-17T10:26:41;100328.91;;;17.77;83.40
54361;BME280;40258;53.936;27.540;2022-10-17T10:29:22;100337.50;;;17.88;82.09
54361;BME280;40258;53.936;27.540;2022-10-17T10:31:53;100332.41;;;18.11;81.08
54361;BME280;40258;53.936;27.540;2022-10-17T10:34:25;100338.63;;;18.32;79.74
54361;BME280;40258;53.936;27.540;2022-10-17T10:37:00;100334.59;;;18.55;79.65
54361;BME280;40258;53.936;27.540;2022-10-17T10:39:42;100351.16;;;18.83;76.78
54361;BME280;40258;53.936;27.540;2022-10-17T10:42:24;100336.81;;;19.02;75.97
54361;BME280;40258;53.936;27.540;2022-10-17T10:44:57;100336.22;;;19.09;74.37
54361;BME280;40258;53.936;27.540;2022-10-17T10:47:28;100324.94;;;19.26;73.28
54361;BME280;40258;53.936;27.540;2022-10-17T10:50:24;100324.00;;;19.50;73.00
54361;BME280;40258;53.936;27.540;2022-10-17T10:53:24;100323.31;;;19.69;73.25
54361;BME280;40258;53.936;27.540;2022-10-17T10:55:59;100332.34;;;20.30;71.30
54361;BME280;40258;53.936;27.540;2022-10-17T10:58:40;100341.13;;;20.52;69.05
54361;BME280;40258;53.936;27.540;2022-10-17T11:01:16;100334.19;;;20.58;67.97
54361;BME280;40258;53.936;27.540;2022-10-17T11:04:00;100330.69;;;20.61;65.13
54361;BME280;40258;53.936;27.540;2022-10-17T11:06:37;100328.25;;;20.24;64.08
54361;BME280;40258;53.936;27.540;2022-10-17T11:09:31;100330.03;;;20.48;63.49
54361;BME280;40258;53.936;27.540;2022-10-17T11:12:08;100343.16;;;20.55;63.80
54361;BME280;40258;53.936;27.540;2022-10-17T11:14:44;100353.63;;;20.14;63.40
54361;BME280;40258;53.936;27.540;2022-10-17T11:17:29;100343.91;;;19.88;64.57
54361;BME280;40258;53.936;27.540;2022-10-17T11:20:12;100344.44;;;20.09;65.64
54361;BME280;40258;53.936;27.540;2022-10-17T11:22:46;100334.34;;;19.69;65.23
54361;BME280;40258;53.936;27.540;2022-10-17T11:25:29;100337.81;;;19.10;67.57
54361;BME280;40258;53.936;27.540;2022-10-17T11:27:58;100328.59;;;18.90;68.31
54361;BME280;40258;53.936;27.540;2022-10-17T11:30:39;100329.63;;;18.60;68.31
54361;BME280;40258;53.936;27.540;2022-10-17T11:33:10;100327.69;;;18.85;68.21
54361;BME280;40258;53.936;27.540;2022-10-17T11:35:46;100327.50;;;19.07;67.59
54361;BME280;40258;53.936;27.540;2022-10-17T11:38:19;100327.00;;;19.29;61.19
54361;BME280;40258;53.936;27.540;2022-10-17T11:40:51;100331.13;;;18.70;65.64
54361;BME280;40258;53.936;27.540;2022-10-17T11:43:27;100323.94;;;18.41;64.99
54361;BME280;40258;53.936;27.540;2022-10-17T11:46:03;100330.91;;;18.13;66.47
54361;BME280;40258;53.936;27.540;2022-10-17T11:48:38;100324.91;;;17.87;67.88
54361;BME280;40258;53.936;27.540;2022-10-17T11:51:12;100321.38;;;17.86;68.30
54361;BME280;40258;53.936;27.540;2022-10-17T11:53:48;100332.69;;;17.85;68.25
54361;BME280;40258;53.936;27.540;2022-10-17T11:56:28;100333.09;;;17.95;67.98
54361;BME280;40258;53.936;27.540;2022-10-17T11:59:17;100332.16;;;18.04;68.17
54361;BME280;40258;53.936;27.540;2022-10-17T12:01:55;100334.25;;;18.19;68.19
54361;BME280;40258;53.936;27.540;2022-10-17T12:04:46;100340.41;;;18.16;68.00
54361;BME280;40258;53.936;27.540;2022-10-17T12:07:32;100342.25;;;18.49;66.20
54361;BME280;40258;53.936;27.540;2022-10-17T12:10:21;100339.84;;;18.35;66.27
54361;BME280;40258;53.936;27.540;2022-10-17T12:12:51;100332.72;;;18.71;64.92
54361;BME280;40258;53.936;27.540;2022-10-17T12:15:31;100341.31;;;18.94;65.44
54361;BME280;40258;53.936;27.540;2022-10-17T12:18:01;100351.81;;;19.04;64.49
54361;BME280;40258;53.936;27.540;2022-10-17T12:20:34;100348.13;;;19.13;63.69
54361;BME280;40258;53.936;27.540;2022-10-17T12:23:21;100345.00;;;18.86;64.73
54361;BME280;40258;53.936;27.540;2022-10-17T12:25:53;100337.53;;;18.74;64.22
54361;BME280;40258;53.936;27.540;2022-10-17T12:28:27;100336.56;;;18.42;64.60
54361;BME280;40258;53.936;27.540;2022-10-17T12:31:00;100336.31;;;18.47;64.78
54361;BME280;40258;53.936;27.540;2022-10-17T12:33:34;100331.75;;;18.39;64.96
54361;BME280;40258;53.936;27.540;2022-10-17T12:36:43;100331.94;;;18.21;65.51
54361;BME280;40258;53.936;27.540;2022-10-17T12:39:49;100331.16;;;18.45;64.80
54361;BME280;40258;53.936;27.540;2022-10-17T12:42:45;100336.41;;;18.50;65.07
54361;BME280;40258;53.936;27.540;2022-10-17T12:45:49;100329.88;;;18.18;65.95
54361;BME280;40258;53.936;27.540;2022-10-17T12:49:01;100332.91;;;17.79;65.68
54361;BME280;40258;53.936;27.540;2022-10-17T12:52:14;100332.66;;;17.72;66.32
54361;BME280;40258;53.936;27.540;2022-10-17T12:54:45;100334.56;;;17.59;67.07
54361;BME280;40258;53.936;27.540;2022-10-17T12:57:32;100329.75;;;17.56;67.66
54361;BME280;40258;53.936;27.540;2022-10-17T13:00:13;100324.41;;;17.39;68.64
54361;BME280;40258;53.936;27.540;2022-10-17T13:02:44;100335.94;;;17.53;68.72
54361;BME280;40258;53.936;27.540;2022-10-17T13:05:18;100331.19;;;17.75;68.10
54361;BME280;40258;53.936;27.540;2022-10-17T13:07:51;100342.22;;;18.00;66.78
54361;BME280;40258;53.936;27.540;2022-10-17T13:10:23;100347.97;;;18.07;65.17
54361;BME280;40258;53.936;27.540;2022-10-17T13:13:04;100343.94;;;18.04;65.47
54361;BME280;40258;53.936;27.540;2022-10-17T13:15:33;100346.03;;;18.20;63.84
54361;BME280;40258;53.936;27.540;2022-10-17T13:18:03;100346.84;;;18.20;63.79